Accueil
METAR-TAF:

METAR-TAF

Aéroports :

Aéroport militaire Mario Berardi

Pratica Di Mare, Italie

latitude: 41-39N, longitude: 012-27E, altitude: 6 m

Observation

Le bulletin a été fait il y a 31 minutes, à 21:55 UTC
Vent 5 kt de nord
Température 7°C
Humidité 87%
Pression 1005 hPa
Visibilité 10 km ou plus
Nuages épars à une hauteur de 6000 ft

METAR: LIRE 032155Z 01005KT 9999 SCT060 07/05 Q1005 RMK SCT VIS MIN 9999 WIND THR13 01006KT WIND THR31 /////KT BLU

Heure: 23:26 (22:26 UTC)

Prévision

Le bulletin a été fait il y a 2 heures et 26 minutes, à 20:00 UTC
Prévision valable du 03 à 21 UTC au 04 à 06 UTC
Vent 5 kt de nord/nord-est
Visibilité 10 km ou plus
Quelques nuages à une hauteur de 2500 ft

TAF: LIRE 032000Z 0321/0406 03005KT 9999 FEW025

Observations et prévisions météorologiques de plus de 4000 aéroports (messages METAR et TAF).

Les stations disponibles sont représentées par des disques jaunes et rouges sur la carte.

Passer la souris dessus pour voir le nom de la station.

Cliquer dessus pour voir les observations et prévisions météorologiques.

Pour changer de carte: cliquez sur les boutons verts avec une croix noire pour zoomer, sur le bouton vert avec un tiret pour effectuer un zoom arrière, ou sur les flèches vertes pour les cartes adjacentes.


METAR-TAF: